sensor_id;sensor_type;location;lat;lon;timestamp;pressure;altitude;pressure_sealevel;temperature;humidity
54194;BME280;40102;50.906;6.972;2023-04-04T00:01:11;102238.91;;;8.02;42.00
54194;BME280;40102;50.906;6.972;2023-04-04T00:03:37;102234.50;;;8.00;42.10
54194;BME280;40102;50.906;6.972;2023-04-04T00:06:03;102232.78;;;7.97;42.16
54194;BME280;40102;50.906;6.972;2023-04-04T00:08:28;102231.94;;;7.95;42.23
54194;BME280;40102;50.906;6.972;2023-04-04T00:10:58;102233.03;;;7.85;42.01
54194;BME280;40102;50.906;6.972;2023-04-04T00:13:24;102241.28;;;7.73;42.22
54194;BME280;40102;50.906;6.972;2023-04-04T00:15:51;102224.47;;;7.69;42.34
54194;BME280;40102;50.906;6.972;2023-04-04T00:18:16;102232.53;;;7.66;42.10
54194;BME280;40102;50.906;6.972;2023-04-04T00:20:42;102235.34;;;7.59;42.73
54194;BME280;40102;50.906;6.972;2023-04-04T00:23:07;102240.66;;;7.60;42.64
54194;BME280;40102;50.906;6.972;2023-04-04T00:25:35;102232.03;;;7.46;42.66
54194;BME280;40102;50.906;6.972;2023-04-04T00:28:01;102236.47;;;7.47;42.98
54194;BME280;40102;50.906;6.972;2023-04-04T00:30:27;102230.13;;;7.53;42.72
54194;BME280;40102;50.906;6.972;2023-04-04T00:32:53;102241.44;;;7.65;42.23
54194;BME280;40102;50.906;6.972;2023-04-04T00:35:19;102226.34;;;7.66;42.36
54194;BME280;40102;50.906;6.972;2023-04-04T00:37:45;102231.44;;;7.76;42.18
54194;BME280;40102;50.906;6.972;2023-04-04T00:40:10;102219.91;;;7.76;41.97
54194;BME280;40102;50.906;6.972;2023-04-04T00:42:37;102229.56;;;7.82;41.91
54194;BME280;40102;50.906;6.972;2023-04-04T00:45:03;102231.31;;;7.83;42.16
54194;BME280;40102;50.906;6.972;2023-04-04T00:47:29;102231.22;;;7.87;41.89
54194;BME280;40102;50.906;6.972;2023-04-04T00:49:59;102233.00;;;7.87;41.82
54194;BME280;40102;50.906;6.972;2023-04-04T00:52:25;102233.97;;;7.84;42.00
54194;BME280;40102;50.906;6.972;2023-04-04T00:54:51;102235.78;;;7.82;41.99
54194;BME280;40102;50.906;6.972;2023-04-04T00:57:17;102234.91;;;7.82;42.01
54194;BME280;40102;50.906;6.972;2023-04-04T00:59:43;102239.34;;;7.81;41.95
54194;BME280;40102;50.906;6.972;2023-04-04T01:02:09;102234.03;;;7.79;42.12
54194;BME280;40102;50.906;6.972;2023-04-04T01:04:34;102245.66;;;7.77;42.34
54194;BME280;40102;50.906;6.972;2023-04-04T01:07:00;102241.28;;;7.73;42.38
54194;BME280;40102;50.906;6.972;2023-04-04T01:09:27;102233.44;;;7.65;42.29
54194;BME280;40102;50.906;6.972;2023-04-04T01:11:54;102237.16;;;7.57;42.65
54194;BME280;40102;50.906;6.972;2023-04-04T01:14:20;102247.03;;;7.52;42.59
54194;BME280;40102;50.906;6.972;2023-04-04T01:16:47;102240.84;;;7.50;42.58
54194;BME280;40102;50.906;6.972;2023-04-04T01:19:19;102238.16;;;7.51;42.76
54194;BME280;40102;50.906;6.972;2023-04-04T01:21:48;102238.16;;;7.51;42.77
54194;BME280;40102;50.906;6.972;2023-04-04T01:24:15;102239.94;;;7.51;42.87
54194;BME280;40102;50.906;6.972;2023-04-04T01:26:40;102233.78;;;7.47;43.00
54194;BME280;40102;50.906;6.972;2023-04-04T01:29:06;102238.34;;;7.40;43.17
54194;BME280;40102;50.906;6.972;2023-04-04T01:31:39;102234.78;;;7.41;43.25
54194;BME280;40102;50.906;6.972;2023-04-04T01:40:31;102231.56;;;7.24;43.26
54194;BME280;40102;50.906;6.972;2023-04-04T01:42:56;102230.88;;;7.13;43.69
54194;BME280;40102;50.906;6.972;2023-04-04T01:45:22;102233.53;;;7.13;43.69
54194;BME280;40102;50.906;6.972;2023-04-04T01:47:48;102224.63;;;7.15;43.76
54194;BME280;40102;50.906;6.972;2023-04-04T01:50:13;102229.91;;;7.17;43.62
54194;BME280;40102;50.906;6.972;2023-04-04T01:52:40;102227.16;;;7.22;43.41
54194;BME280;40102;50.906;6.972;2023-04-04T01:55:05;102218.28;;;7.23;43.33
54194;BME280;40102;50.906;6.972;2023-04-04T01:57:32;102224.44;;;7.25;43.30
54194;BME280;40102;50.906;6.972;2023-04-04T01:59:58;102232.56;;;7.17;43.32
54194;BME280;40102;50.906;6.972;2023-04-04T02:02:23;102227.53;;;7.02;44.13
54194;BME280;40102;50.906;6.972;2023-04-04T02:04:48;102223.97;;;7.01;44.23
54194;BME280;40102;50.906;6.972;2023-04-04T02:07:14;102225.81;;;6.98;44.46
54194;BME280;40102;50.906;6.972;2023-04-04T02:09:40;102219.69;;;6.93;44.41
54194;BME280;40102;50.906;6.972;2023-04-04T02:12:06;102213.53;;;6.91;44.41
54194;BME280;40102;50.906;6.972;2023-04-04T02:14:32;102227.66;;;6.94;44.49
54194;BME280;40102;50.906;6.972;2023-04-04T02:16:58;102209.88;;;6.96;44.50
54194;BME280;40102;50.906;6.972;2023-04-04T02:19:24;102214.41;;;6.91;44.33
54194;BME280;40102;50.906;6.972;2023-04-04T02:21:50;102218.59;;;6.50;44.91
54194;BME280;40102;50.906;6.972;2023-04-04T02:24:15;102216.53;;;6.09;46.31
54194;BME280;40102;50.906;6.972;2023-04-04T02:26:41;102217.72;;;5.84;46.72
54194;BME280;40102;50.906;6.972;2023-04-04T02:29:06;102218.66;;;5.78;47.12
54194;BME280;40102;50.906;6.972;2023-04-04T02:31:32;102217.66;;;5.92;47.11
54194;BME280;40102;50.906;6.972;2023-04-04T02:33:58;102208.59;;;6.06;46.73
54194;BME280;40102;50.906;6.972;2023-04-04T02:36:23;102220.72;;;6.26;46.29
54194;BME280;40102;50.906;6.972;2023-04-04T02:38:48;102218.00;;;6.32;45.83
54194;BME280;40102;50.906;6.972;2023-04-04T02:41:14;102212.81;;;6.21;45.71
54194;BME280;40102;50.906;6.972;2023-04-04T02:43:39;102206.75;;;6.11;45.97
54194;BME280;40102;50.906;6.972;2023-04-04T02:46:05;102211.25;;;6.06;46.16
54194;BME280;40102;50.906;6.972;2023-04-04T02:48:30;102208.66;;;6.02;46.28
54194;BME280;40102;50.906;6.972;2023-04-04T02:50:56;102200.59;;;6.08;46.25
54194;BME280;40102;50.906;6.972;2023-04-04T02:53:21;102190.75;;;6.16;46.01
54194;BME280;40102;50.906;6.972;2023-04-04T02:55:47;102192.50;;;6.18;46.08
54194;BME280;40102;50.906;6.972;2023-04-04T02:58:13;102184.59;;;6.12;45.65
54194;BME280;40102;50.906;6.972;2023-04-04T03:00:38;102188.13;;;6.14;46.11
54194;BME280;40102;50.906;6.972;2023-04-04T03:03:03;102190.59;;;6.27;45.73
54194;BME280;40102;50.906;6.972;2023-04-04T03:05:29;102189.59;;;6.34;45.17
54194;BME280;40102;50.906;6.972;2023-04-04T03:07:56;102183.38;;;6.36;45.24
54194;BME280;40102;50.906;6.972;2023-04-04T03:10:23;102191.41;;;6.32;45.25
54194;BME280;40102;50.906;6.972;2023-04-04T03:12:48;102187.91;;;6.30;45.43
54194;BME280;40102;50.906;6.972;2023-04-04T03:15:14;102189.69;;;6.29;45.38
54194;BME280;40102;50.906;6.972;2023-04-04T03:17:40;102187.91;;;6.28;45.44
54194;BME280;40102;50.906;6.972;2023-04-04T03:20:06;102194.88;;;6.37;45.26
54194;BME280;40102;50.906;6.972;2023-04-04T03:22:31;102190.41;;;6.39;45.11
54194;BME280;40102;50.906;6.972;2023-04-04T03:24:57;102202.69;;;6.47;45.11
54194;BME280;40102;50.906;6.972;2023-04-04T03:27:22;102200.00;;;6.49;44.97
54194;BME280;40102;50.906;6.972;2023-04-04T03:29:47;102197.34;;;6.49;44.96
54194;BME280;40102;50.906;6.972;2023-04-04T03:32:13;102193.84;;;6.47;44.99
54194;BME280;40102;50.906;6.972;2023-04-04T03:34:38;102207.03;;;6.53;44.86
54194;BME280;40102;50.906;6.972;2023-04-04T03:37:03;102196.38;;;6.55;44.81
54194;BME280;40102;50.906;6.972;2023-04-04T03:39:29;102199.94;;;6.54;44.52
54194;BME280;40102;50.906;6.972;2023-04-04T03:41:55;102202.66;;;6.50;44.49
54194;BME280;40102;50.906;6.972;2023-04-04T03:44:21;102196.66;;;6.36;44.73
54194;BME280;40102;50.906;6.972;2023-04-04T03:46:47;102195.03;;;6.26;45.17
54194;BME280;40102;50.906;6.972;2023-04-04T03:49:12;102193.28;;;6.25;45.46
54194;BME280;40102;50.906;6.972;2023-04-04T03:51:37;102192.53;;;6.15;45.51
54194;BME280;40102;50.906;6.972;2023-04-04T03:54:03;102191.84;;;6.01;45.88
54194;BME280;40102;50.906;6.972;2023-04-04T03:56:29;102198.19;;;5.88;46.05
54194;BME280;40102;50.906;6.972;2023-04-04T03:58:57;102190.78;;;5.42;47.29
54194;BME280;40102;50.906;6.972;2023-04-04T04:01:22;102201.88;;;4.98;48.64
54194;BME280;40102;50.906;6.972;2023-04-04T04:03:47;102192.38;;;4.71;49.67
54194;BME280;40102;50.906;6.972;2023-04-04T04:06:13;102183.47;;;4.80;50.07
54194;BME280;40102;50.906;6.972;2023-04-04T04:08:38;102188.69;;;4.89;49.19
54194;BME280;40102;50.906;6.972;2023-04-04T04:11:04;102189.47;;;4.99;48.99
54194;BME280;40102;50.906;6.972;2023-04-04T04:13:30;102190.25;;;5.11;48.62
54194;BME280;40102;50.906;6.972;2023-04-04T04:15:55;102187.41;;;5.25;48.21
54194;BME280;40102;50.906;6.972;2023-04-04T04:18:21;102179.41;;;5.30;48.12
54194;BME280;40102;50.906;6.972;2023-04-04T04:20:46;102178.47;;;5.35;48.05
54194;BME280;40102;50.906;6.972;2023-04-04T04:23:12;102181.84;;;5.48;47.94
54194;BME280;40102;50.906;6.972;2023-04-04T04:25:37;102173.88;;;5.51;47.43
54194;BME280;40102;50.906;6.972;2023-04-04T04:28:03;102177.38;;;5.53;47.56
54194;BME280;40102;50.906;6.972;2023-04-04T04:30:28;102171.13;;;5.59;47.63
54194;BME280;40102;50.906;6.972;2023-04-04T04:32:53;102167.41;;;5.72;47.33
54194;BME280;40102;50.906;6.972;2023-04-04T04:35:19;102171.72;;;5.80;47.04
54194;BME280;40102;50.906;6.972;2023-04-04T04:37:44;102165.53;;;5.80;46.58
54194;BME280;40102;50.906;6.972;2023-04-04T04:40:10;102167.50;;;5.64;46.73
54194;BME280;40102;50.906;6.972;2023-04-04T04:42:43;102171.28;;;5.45;47.15
54194;BME280;40102;50.906;6.972;2023-04-04T04:45:09;102169.47;;;5.47;47.59
54194;BME280;40102;50.906;6.972;2023-04-04T04:47:36;102179.97;;;5.59;47.88
54194;BME280;40102;50.906;6.972;2023-04-04T04:50:01;102178.09;;;5.67;47.14
54194;BME280;40102;50.906;6.972;2023-04-04T04:52:27;102178.88;;;5.75;46.86
54194;BME280;40102;50.906;6.972;2023-04-04T04:54:53;102169.94;;;5.81;46.63
54194;BME280;40102;50.906;6.972;2023-04-04T04:57:20;102163.72;;;5.83;46.69
54194;BME280;40102;50.906;6.972;2023-04-04T04:59:45;102174.34;;;5.83;46.84
54194;BME280;40102;50.906;6.972;2023-04-04T05:02:11;102166.41;;;5.82;46.26
54194;BME280;40102;50.906;6.972;2023-04-04T05:04:36;102171.97;;;5.62;46.83
54194;BME280;40102;50.906;6.972;2023-04-04T05:07:01;102170.63;;;5.23;47.50
54194;BME280;40102;50.906;6.972;2023-04-04T05:09:27;102179.69;;;5.05;48.08
54194;BME280;40102;50.906;6.972;2023-04-04T05:11:52;102180.69;;;4.92;48.61
54194;BME280;40102;50.906;6.972;2023-04-04T05:14:18;102167.41;;;4.95;48.77
54194;BME280;40102;50.906;6.972;2023-04-04T05:16:44;102176.13;;;5.09;48.45
54194;BME280;40102;50.906;6.972;2023-04-04T05:19:09;102166.38;;;5.11;48.58
54194;BME280;40102;50.906;6.972;2023-04-04T05:21:35;102173.28;;;5.23;48.46
54194;BME280;40102;50.906;6.972;2023-04-04T05:24:00;102182.13;;;5.24;48.49
54194;BME280;40102;50.906;6.972;2023-04-04T05:26:26;102175.00;;;5.27;48.50
54194;BME280;40102;50.906;6.972;2023-04-04T05:28:53;102185.50;;;5.38;48.04
54194;BME280;40102;50.906;6.972;2023-04-04T05:31:19;102186.63;;;5.95;76.23
54194;BME280;40102;50.906;6.972;2023-04-04T05:33:45;102187.06;;;6.81;61.34
54194;BME280;40102;50.906;6.972;2023-04-04T05:36:10;102182.41;;;7.43;53.74
54194;BME280;40102;50.906;6.972;2023-04-04T05:38:37;102186.03;;;7.39;47.03
54194;BME280;40102;50.906;6.972;2023-04-04T05:41:03;102175.91;;;7.12;46.03
54194;BME280;40102;50.906;6.972;2023-04-04T05:43:28;102187.88;;;6.87;45.84
54194;BME280;40102;50.906;6.972;2023-04-04T05:45:54;102192.69;;;6.63;45.74
54194;BME280;40102;50.906;6.972;2023-04-04T05:48:19;102177.97;;;6.41;45.79
54194;BME280;40102;50.906;6.972;2023-04-04T05:50:45;102189.59;;;6.35;46.20
54194;BME280;40102;50.906;6.972;2023-04-04T05:53:11;102188.88;;;6.24;46.20
54194;BME280;40102;50.906;6.972;2023-04-04T05:55:36;102196.94;;;6.18;46.49
54194;BME280;40102;50.906;6.972;2023-04-04T05:58:02;102199.66;;;6.12;46.47
54194;BME280;40102;50.906;6.972;2023-04-04T06:00:27;102203.31;;;6.05;46.77
54194;BME280;40102;50.906;6.972;2023-04-04T06:02:55;102203.41;;;5.97;46.91
54194;BME280;40102;50.906;6.972;2023-04-04T06:05:21;102207.81;;;6.00;47.13
54194;BME280;40102;50.906;6.972;2023-04-04T06:07:46;102204.28;;;5.98;46.96
54194;BME280;40102;50.906;6.972;2023-04-04T06:10:12;102210.47;;;6.00;47.04
54194;BME280;40102;50.906;6.972;2023-04-04T06:12:37;102201.56;;;6.02;46.96
54194;BME280;40102;50.906;6.972;2023-04-04T06:15:03;102218.38;;;6.04;46.84
54194;BME280;40102;50.906;6.972;2023-04-04T06:17:29;102215.75;;;6.01;47.20
54194;BME280;40102;50.906;6.972;2023-04-04T06:19:55;102220.16;;;6.02;47.40
54194;BME280;40102;50.906;6.972;2023-04-04T06:22:20;102221.88;;;6.06;47.33
54194;BME280;40102;50.906;6.972;2023-04-04T06:24:46;102222.75;;;6.08;47.22
54194;BME280;40102;50.906;6.972;2023-04-04T06:27:11;102222.63;;;6.17;47.41
54194;BME280;40102;50.906;6.972;2023-04-04T06:29:37;102216.31;;;6.25;47.57
54194;BME280;40102;50.906;6.972;2023-04-04T06:32:02;102205.69;;;6.25;46.77
54194;BME280;40102;50.906;6.972;2023-04-04T06:34:29;102221.59;;;6.26;46.42
54194;BME280;40102;50.906;6.972;2023-04-04T06:36:54;102210.09;;;6.26;46.45
54194;BME280;40102;50.906;6.972;2023-04-04T06:39:20;102220.69;;;6.29;46.28
54194;BME280;40102;50.906;6.972;2023-04-04T06:41:45;102223.38;;;6.26;46.31
54194;BME280;40102;50.906;6.972;2023-04-04T06:44:12;102220.78;;;6.23;45.76
54194;BME280;40102;50.906;6.972;2023-04-04T06:46:37;102226.09;;;6.23;45.57
54194;BME280;40102;50.906;6.972;2023-04-04T06:49:03;102218.13;;;6.21;45.41
54194;BME280;40102;50.906;6.972;2023-04-04T06:51:29;102231.41;;;6.23;45.54
54194;BME280;40102;50.906;6.972;2023-04-04T06:53:55;102226.97;;;6.23;45.30
54194;BME280;40102;50.906;6.972;2023-04-04T06:56:21;102234.84;;;6.29;45.41
54194;BME280;40102;50.906;6.972;2023-04-04T06:58:47;102229.50;;;6.31;45.39
54194;BME280;40102;50.906;6.972;2023-04-04T07:01:13;102236.53;;;6.35;45.22
54194;BME280;40102;50.906;6.972;2023-04-04T07:03:38;102234.75;;;6.35;45.15
54194;BME280;40102;50.906;6.972;2023-04-04T07:06:04;102233.88;;;6.36;44.72
54194;BME280;40102;50.906;6.972;2023-04-04T07:08:29;102235.66;;;6.36;44.97
54194;BME280;40102;50.906;6.972;2023-04-04T07:10:55;102242.72;;;6.37;44.72
54194;BME280;40102;50.906;6.972;2023-04-04T07:13:21;102249.78;;;6.39;44.94
54194;BME280;40102;50.906;6.972;2023-04-04T07:15:47;102249.78;;;6.39;44.24
54194;BME280;40102;50.906;6.972;2023-04-04T07:18:14;102240.94;;;6.37;44.58
54194;BME280;40102;50.906;6.972;2023-04-04T07:20:40;102251.56;;;6.37;44.31
54194;BME280;40102;50.906;6.972;2023-04-04T07:23:05;102255.97;;;6.38;44.27
54194;BME280;40102;50.906;6.972;2023-04-04T07:25:31;102246.38;;;6.28;44.00
54194;BME280;40102;50.906;6.972;2023-04-04T07:27:56;102241.13;;;6.24;44.36
54194;BME280;40102;50.906;6.972;2023-04-04T07:30:22;102256.06;;;6.32;44.58
54194;BME280;40102;50.906;6.972;2023-04-04T07:32:58;102252.44;;;6.39;44.08
54194;BME280;40102;50.906;6.972;2023-04-04T07:35:24;102254.06;;;6.49;44.21
54194;BME280;40102;50.906;6.972;2023-04-04T07:37:49;102254.06;;;6.49;43.84
54194;BME280;40102;50.906;6.972;2023-04-04T07:40:16;102260.19;;;6.53;43.47
54194;BME280;40102;50.906;6.972;2023-04-04T07:42:45;102258.53;;;6.46;42.86
54194;BME280;40102;50.906;6.972;2023-04-04T07:45:12;102249.63;;;6.48;43.14
54194;BME280;40102;50.906;6.972;2023-04-04T07:47:42;102250.69;;;6.37;42.62
54194;BME280;40102;50.906;6.972;2023-04-04T07:50:08;102244.63;;;6.27;43.31
54194;BME280;40102;50.906;6.972;2023-04-04T07:52:34;102242.13;;;6.15;43.00
54194;BME280;40102;50.906;6.972;2023-04-04T07:54:59;102248.38;;;6.11;43.39
54194;BME280;40102;50.906;6.972;2023-04-04T07:57:25;102254.63;;;6.08;43.90
54194;BME280;40102;50.906;6.972;2023-04-04T07:59:51;102244.81;;;6.12;43.46
54194;BME280;40102;50.906;6.972;2023-04-04T08:02:16;102241.41;;;6.02;42.97
54194;BME280;40102;50.906;6.972;2023-04-04T08:04:41;102237.13;;;5.92;43.58
54194;BME280;40102;50.906;6.972;2023-04-04T08:07:07;102237.34;;;5.71;44.00
54194;BME280;40102;50.906;6.972;2023-04-04T08:09:32;102239.19;;;5.64;44.95
54194;BME280;40102;50.906;6.972;2023-04-04T08:12:00;102238.38;;;5.58;44.35
54194;BME280;40102;50.906;6.972;2023-04-04T08:14:27;102236.56;;;5.61;44.06
54194;BME280;40102;50.906;6.972;2023-04-04T08:16:52;102221.44;;;5.68;43.48
54194;BME280;40102;50.906;6.972;2023-04-04T08:19:18;102225.63;;;5.87;43.79
54194;BME280;40102;50.906;6.972;2023-04-04T08:21:44;102238.00;;;5.93;42.98
54194;BME280;40102;50.906;6.972;2023-04-04T08:24:13;102237.22;;;5.80;43.70
54194;BME280;40102;50.906;6.972;2023-04-04T08:26:38;102233.84;;;5.67;43.54
54194;BME280;40102;50.906;6.972;2023-04-04T08:29:03;102224.97;;;5.70;43.44
54194;BME280;40102;50.906;6.972;2023-04-04T08:31:29;102214.41;;;5.64;42.95
54194;BME280;40102;50.906;6.972;2023-04-04T08:33:55;102218.66;;;5.78;43.47
54194;BME280;40102;50.906;6.972;2023-04-04T08:36:20;102218.38;;;6.03;43.19
54194;BME280;40102;50.906;6.972;2023-04-04T08:38:46;102209.34;;;6.16;42.27
54194;BME280;40102;50.906;6.972;2023-04-04T08:41:12;102215.34;;;6.30;42.25
54194;BME280;40102;50.906;6.972;2023-04-04T08:43:38;102210.00;;;6.33;42.07
54194;BME280;40102;50.906;6.972;2023-04-04T08:46:07;102214.47;;;6.30;42.17
54194;BME280;40102;50.906;6.972;2023-04-04T08:48:34;102212.59;;;6.38;42.62
54194;BME280;40102;50.906;6.972;2023-04-04T08:51:02;102211.63;;;6.43;42.45
54194;BME280;40102;50.906;6.972;2023-04-04T08:53:29;102206.13;;;6.54;42.43
54194;BME280;40102;50.906;6.972;2023-04-04T08:55:58;102212.19;;;6.64;41.70
54194;BME280;40102;50.906;6.972;2023-04-04T08:58:25;102207.94;;;6.52;41.28
54194;BME280;40102;50.906;6.972;2023-04-04T09:00:55;102211.84;;;6.27;42.05
54194;BME280;40102;50.906;6.972;2023-04-04T09:03:25;102211.84;;;6.28;42.48
54194;BME280;40102;50.906;6.972;2023-04-04T09:05:52;102217.91;;;6.38;42.68
54194;BME280;40102;50.906;6.972;2023-04-04T09:08:19;102204.47;;;6.47;42.66
54194;BME280;40102;50.906;6.972;2023-04-04T09:10:45;102214.00;;;6.62;42.27
54194;BME280;40102;50.906;6.972;2023-04-04T09:13:12;102211.34;;;6.62;41.14
54194;BME280;40102;50.906;6.972;2023-04-04T09:15:39;102205.91;;;6.68;41.78
54194;BME280;40102;50.906;6.972;2023-04-04T09:18:06;102216.53;;;6.69;41.77
54194;BME280;40102;50.906;6.972;2023-04-04T09:23:04;102227.34;;;6.57;41.03
54194;BME280;40102;50.906;6.972;2023-04-04T09:25:32;102215.09;;;6.47;41.90
54194;BME280;40102;50.906;6.972;2023-04-04T09:27:57;102213.56;;;6.31;41.36
54194;BME280;40102;50.906;6.972;2023-04-04T09:30:22;102204.97;;;6.13;42.33
54194;BME280;40102;50.906;6.972;2023-04-04T09:32:49;102212.94;;;6.12;43.21
54194;BME280;40102;50.906;6.972;2023-04-04T09:35:14;102205.78;;;6.18;43.14
54194;BME280;40102;50.906;6.972;2023-04-04T09:37:40;102212.66;;;6.32;42.61
54194;BME280;40102;50.906;6.972;2023-04-04T09:40:08;102211.53;;;6.48;42.79
54194;BME280;40102;50.906;6.972;2023-04-04T09:42:34;102212.22;;;6.61;42.42
54194;BME280;40102;50.906;6.972;2023-04-04T09:45:01;102204.41;;;6.52;42.73
54194;BME280;40102;50.906;6.972;2023-04-04T09:47:27;102204.53;;;6.42;41.91
54194;BME280;40102;50.906;6.972;2023-04-04T09:49:58;102220.44;;;6.45;42.39
54194;BME280;40102;50.906;6.972;2023-04-04T09:52:25;102209.66;;;6.56;41.87
54194;BME280;40102;50.906;6.972;2023-04-04T09:54:57;102201.69;;;6.55;41.45
54194;BME280;40102;50.906;6.972;2023-04-04T09:57:34;102199.88;;;6.58;42.81
54194;BME280;40102;50.906;6.972;2023-04-04T10:00:02;102204.16;;;6.67;42.39
54194;BME280;40102;50.906;6.972;2023-04-04T10:02:31;102196.00;;;6.77;41.99
54194;BME280;40102;50.906;6.972;2023-04-04T10:04:57;102197.00;;;6.70;41.35
54194;BME280;40102;50.906;6.972;2023-04-04T10:07:30;102189.84;;;6.75;41.75
54194;BME280;40102;50.906;6.972;2023-04-04T10:10:04;102190.63;;;6.82;41.15
54194;BME280;40102;50.906;6.972;2023-04-04T10:12:29;102187.81;;;6.90;41.10
54194;BME280;40102;50.906;6.972;2023-04-04T10:14:56;102188.66;;;6.93;40.84
54194;BME280;40102;50.906;6.972;2023-04-04T10:17:23;102181.50;;;6.97;40.13
54194;BME280;40102;50.906;6.972;2023-04-04T10:19:48;102181.41;;;7.01;40.29
54194;BME280;40102;50.906;6.972;2023-04-04T10:22:14;102178.66;;;7.06;40.44
54194;BME280;40102;50.906;6.972;2023-04-04T10:24:40;102174.13;;;7.12;40.82
54194;BME280;40102;50.906;6.972;2023-04-04T10:27:06;102170.44;;;7.20;40.50
54194;BME280;40102;50.906;6.972;2023-04-04T10:29:31;102166.06;;;7.15;39.65
54194;BME280;40102;50.906;6.972;2023-04-04T10:32:04;102167.03;;;7.11;39.80
54194;BME280;40102;50.906;6.972;2023-04-04T10:34:38;102159.94;;;7.12;40.19
54194;BME280;40102;50.906;6.972;2023-04-04T10:37:08;102156.13;;;7.25;40.53
54194;BME280;40102;50.906;6.972;2023-04-04T10:39:43;102149.72;;;7.35;39.99
54194;BME280;40102;50.906;6.972;2023-04-04T10:42:13;102146.97;;;7.40;39.49
54194;BME280;40102;50.906;6.972;2023-04-04T10:44:43;102146.91;;;7.43;39.47
54194;BME280;40102;50.906;6.972;2023-04-04T10:47:22;102136.28;;;7.41;39.29
54194;BME280;40102;50.906;6.972;2023-04-04T10:49:49;102138.19;;;7.35;38.49
54194;BME280;40102;50.906;6.972;2023-04-04T10:52:16;102133.69;;;7.38;39.60
54194;BME280;40102;50.906;6.972;2023-04-04T10:54:43;102131.81;;;7.43;39.24
54194;BME280;40102;50.906;6.972;2023-04-04T10:57:09;102133.50;;;7.47;39.16
54194;BME280;40102;50.906;6.972;2023-04-04T10:59:57;102124.44;;;7.56;38.70
54194;BME280;40102;50.906;6.972;2023-04-04T11:02:46;102123.38;;;7.65;38.85
54194;BME280;40102;50.906;6.972;2023-04-04T11:08:26;102119.63;;;7.73;37.66
54194;BME280;40102;50.906;6.972;2023-04-04T11:10:53;102119.50;;;7.79;36.88
54194;BME280;40102;50.906;6.972;2023-04-04T11:13:39;102117.56;;;7.88;36.88
54194;BME280;40102;50.906;6.972;2023-04-04T11:16:06;102114.72;;;7.95;37.39
54194;BME280;40102;50.906;6.972;2023-04-04T11:21:05;102094.72;;;8.15;37.59
54194;BME280;40102;50.906;6.972;2023-04-04T11:26:11;102092.63;;;8.27;36.29
54194;BME280;40102;50.906;6.972;2023-04-04T11:34:10;102088.81;;;8.39;36.71
54194;BME280;40102;50.906;6.972;2023-04-04T11:39:10;102089.44;;;8.50;35.78
54194;BME280;40102;50.906;6.972;2023-04-04T11:42:01;102081.28;;;8.56;35.98
54194;BME280;40102;50.906;6.972;2023-04-04T11:44:33;102082.00;;;8.63;36.07
54194;BME280;40102;50.906;6.972;2023-04-04T11:49:37;102080.88;;;8.71;35.47
54194;BME280;40102;50.906;6.972;2023-04-04T11:52:06;102077.88;;;8.84;35.15
54194;BME280;40102;50.906;6.972;2023-04-04T11:54:33;102080.47;;;8.87;34.94
54194;BME280;40102;50.906;6.972;2023-04-04T11:56:58;102070.53;;;8.92;35.25
54194;BME280;40102;50.906;6.972;2023-04-04T11:59:24;102064.19;;;8.96;35.04
54194;BME280;40102;50.906;6.972;2023-04-04T12:01:50;102053.44;;;8.99;35.10
54194;BME280;40102;50.906;6.972;2023-04-04T12:04:19;102052.19;;;9.12;35.55
54194;BME280;40102;50.906;6.972;2023-04-04T12:06:54;102056.16;;;9.28;35.15
54194;BME280;40102;50.906;6.972;2023-04-04T12:09:22;102050.63;;;9.34;35.28
54194;BME280;40102;50.906;6.972;2023-04-04T12:11:50;102052.63;;;9.57;35.24
54194;BME280;40102;50.906;6.972;2023-04-04T12:14:20;102049.63;;;9.68;35.23
54194;BME280;40102;50.906;6.972;2023-04-04T12:16:47;102042.25;;;9.76;33.68
54194;BME280;40102;50.906;6.972;2023-04-04T12:19:13;102034.75;;;9.87;34.37
54194;BME280;40102;50.906;6.972;2023-04-04T12:21:39;102038.53;;;10.08;34.55
54194;BME280;40102;50.906;6.972;2023-04-04T12:24:06;102032.63;;;10.26;33.92
54194;BME280;40102;50.906;6.972;2023-04-04T12:26:34;102035.66;;;10.41;33.00
54194;BME280;40102;50.906;6.972;2023-04-04T12:29:00;102024.97;;;10.41;33.23
54194;BME280;40102;50.906;6.972;2023-04-04T12:31:27;102030.97;;;10.47;34.07
54194;BME280;40102;50.906;6.972;2023-04-04T12:33:53;102025.19;;;10.59;33.76
54194;BME280;40102;50.906;6.972;2023-04-04T12:36:19;102027.28;;;10.76;34.01
54194;BME280;40102;50.906;6.972;2023-04-04T12:39:02;102014.00;;;10.98;34.78
54194;BME280;40102;50.906;6.972;2023-04-04T12:41:29;102022.16;;;11.18;34.54
54194;BME280;40102;50.906;6.972;2023-04-04T12:44:05;102019.19;;;11.26;33.43
54194;BME280;40102;50.906;6.972;2023-04-04T12:46:35;102005.31;;;11.38;33.83
54194;BME280;40102;50.906;6.972;2023-04-04T12:49:09;102011.72;;;11.57;34.40
54194;BME280;40102;50.906;6.972;2023-04-04T12:51:36;101998.06;;;11.87;33.46
54194;BME280;40102;50.906;6.972;2023-04-04T12:54:03;101994.78;;;12.22;31.94
54194;BME280;40102;50.906;6.972;2023-04-04T12:56:30;101989.69;;;12.37;31.08
54194;BME280;40102;50.906;6.972;2023-04-04T12:58:59;101984.72;;;12.48;31.07
54194;BME280;40102;50.906;6.972;2023-04-04T13:01:28;101980.38;;;12.65;31.22
54194;BME280;40102;50.906;6.972;2023-04-04T13:03:54;101971.31;;;12.68;29.68
54194;BME280;40102;50.906;6.972;2023-04-04T13:06:20;101974.09;;;12.85;30.80
54194;BME280;40102;50.906;6.972;2023-04-04T13:08:50;101964.78;;;12.74;30.02
54194;BME280;40102;50.906;6.972;2023-04-04T13:11:19;101966.47;;;12.76;30.71
54194;BME280;40102;50.906;6.972;2023-04-04T13:13:46;101962.88;;;12.96;30.29
54194;BME280;40102;50.906;6.972;2023-04-04T13:16:28;101957.25;;;13.21;28.82
54194;BME280;40102;50.906;6.972;2023-04-04T13:18:54;101953.56;;;13.42;29.38
54194;BME280;40102;50.906;6.972;2023-04-04T13:21:20;101947.28;;;13.60;30.15
54194;BME280;40102;50.906;6.972;2023-04-04T13:23:45;101941.81;;;13.81;29.30
54194;BME280;40102;50.906;6.972;2023-04-04T13:26:11;101946.00;;;13.86;30.41